Time;durP1;ratioP1;P1;durP2;ratioP2;P2;SDS_P1;SDS_P2;PMS_P1;PMS_P2;Temp;Humidity;BMP_temperature;BMP_pressure;BME280_temperature;BME280_humidity;BME280_pressure;Samples;Min_cycle;Max_cycle;Signal;HPM_P1;HPM_P2
2023/07/19 00:00:56;;;;;;;13.18;3.28;;;26.90;95.00;;;;;;4974259;28;20027;-72
2023/07/19 00:08:47;;;;;;;6.13;2.95;;;26.70;95.50;;;;;;5029905;23;20058;-74
2023/07/19 00:11:13;;;;;;;8.85;3.55;;;26.70;95.60;;;;;;5012687;28;20128;-73
2023/07/19 00:13:38;;;;;;;8.52;3.55;;;26.70;95.60;;;;;;5012744;28;20482;-73
2023/07/19 00:16:05;;;;;;;12.48;4.10;;;26.70;95.60;;;;;;5012979;28;20406;-73
2023/07/19 00:18:30;;;;;;;5.50;3.50;;;26.70;95.80;;;;;;5012696;28;20042;-73
2023/07/19 00:20:56;;;;;;;8.07;3.80;;;26.60;96.00;;;;;;5009044;28;20514;-74
2023/07/19 00:23:22;;;;;;;8.60;4.15;;;26.60;96.00;;;;;;5012822;28;20471;-72
2023/07/19 00:25:48;;;;;;;10.82;4.78;;;26.50;96.20;;;;;;5012617;28;20479;-73
2023/07/19 00:28:14;;;;;;;9.20;3.60;;;26.50;96.30;;;;;;4995599;28;20030;-73
2023/07/19 00:30:40;;;;;;;13.65;4.40;;;26.50;96.60;;;;;;5012315;28;20030;-73
2023/07/19 00:33:06;;;;;;;9.38;4.15;;;26.50;96.80;;;;;;4994836;28;20029;-73
2023/07/19 00:35:33;;;;;;;10.88;5.03;;;26.50;96.80;;;;;;5012553;28;20048;-73
2023/07/19 00:37:58;;;;;;;10.43;4.55;;;26.50;96.90;;;;;;5012734;28;20542;-73
2023/07/19 00:40:24;;;;;;;9.05;4.82;;;26.50;96.90;;;;;;5012339;28;20511;-73
2023/07/19 00:42:57;;;;;;;12.00;4.57;;;26.50;97.10;;;;;;5015910;28;20029;-72
2023/07/19 00:45:25;;;;;;;8.10;4.53;;;26.50;96.90;;;;;;5012278;28;20080;-73
2023/07/19 00:47:52;;;;;;;9.65;4.47;;;26.60;96.90;;;;;;5008545;28;20022;-73
2023/07/19 00:50:20;;;;;;;11.23;4.43;;;26.50;97.00;;;;;;4994827;28;20030;-73
2023/07/19 00:52:51;;;;;;;10.73;4.68;;;26.40;97.20;;;;;;4994557;28;20026;-73
2023/07/19 00:55:18;;;;;;;12.48;4.35;;;26.30;97.50;;;;;;5012343;28;20029;-73
2023/07/19 00:57:44;;;;;;;8.77;4.90;;;26.30;97.50;;;;;;5012205;28;20509;-74
2023/07/19 01:00:11;;;;;;;13.55;4.80;;;26.20;97.70;;;;;;5012111;28;20029;-74
2023/07/19 01:02:37;;;;;;;7.47;4.20;;;26.10;97.90;;;;;;5011932;28;20079;-73
2023/07/19 01:05:03;;;;;;;7.53;4.28;;;26.20;98.40;;;;;;5011775;28;20017;-72
2023/07/19 01:07:29;;;;;;;9.70;4.53;;;26.10;98.60;;;;;;4994106;28;20091;-73
2023/07/19 01:09:56;;;;;;;9.38;4.70;;;26.00;99.10;;;;;;5011858;28;20022;-72
2023/07/19 01:12:22;;;;;;;6.38;3.83;;;26.00;99.90;;;;;;4993954;28;20072;-73
2023/07/19 01:14:47;;;;;;;10.00;4.28;;;26.00;99.90;;;;;;5011992;28;20101;-73
2023/07/19 01:17:13;;;;;;;8.88;4.75;;;25.90;99.90;;;;;;4994101;28;20034;-73
2023/07/19 01:19:39;;;;;;;9.50;4.35;;;25.90;99.90;;;;;;5011707;28;20029;-73
2023/07/19 01:22:06;;;;;;;9.30;4.80;;;25.70;99.90;;;;;;4994087;28;20026;-73
2023/07/19 01:24:33;;;;;;;9.90;4.82;;;;;;;;;;5011695;28;20025;-72
2023/07/19 01:27:01;;;;;;;8.18;3.85;;;25.60;99.90;;;;;;4994120;28;20090;-72
2023/07/19 01:29:27;;;;;;;9.50;4.57;;;;;;;;;;4993726;28;20442;-72
2023/07/19 01:31:53;;;;;;;8.43;4.05;;;25.50;99.90;;;;;;4993716;28;20040;-74
2023/07/19 01:34:19;;;;;;;7.50;4.00;;;25.40;99.90;;;;;;5007868;28;20101;-72
2023/07/19 01:36:45;;;;;;;12.75;4.75;;;25.30;99.90;;;;;;4993500;28;20050;-76
2023/07/19 01:39:11;;;;;;;5.70;3.38;;;25.10;99.90;;;;;;4993720;28;20117;-75
2023/07/19 01:41:36;;;;;;;9.88;4.65;;;25.10;99.90;;;;;;4993753;28;20129;-74
2023/07/19 01:44:02;;;;;;;12.80;4.70;;;25.00;99.90;;;;;;4993032;28;20500;-73
2023/07/19 01:46:28;;;;;;;10.00;3.97;;;;;;;;;;5011638;28;20057;-73
2023/07/19 01:48:54;;;;;;;9.90;3.80;;;24.80;99.90;;;;;;4993889;28;20021;-72
2023/07/19 01:51:20;;;;;;;10.73;4.07;;;;;;;;;;5011027;28;20112;-73
2023/07/19 01:53:46;;;;;;;8.00;3.97;;;24.70;99.90;;;;;;5011197;28;20064;-73
2023/07/19 01:56:12;;;;;;;8.85;4.47;;;24.70;99.90;;;;;;4993191;28;20522;-73
2023/07/19 01:58:38;;;;;;;9.63;4.63;;;24.70;99.90;;;;;;4993767;28;20030;-73
2023/07/19 02:01:03;;;;;;;7.82;3.80;;;24.70;99.90;;;;;;4993515;28;20025;-73
2023/07/19 02:03:30;;;;;;;6.40;4.00;;;24.70;99.90;;;;;;5010764;28;20109;-73
2023/07/19 02:06:00;;;;;;;6.95;3.80;;;24.60;99.90;;;;;;4993367;28;20117;-72
2023/07/19 02:08:26;;;;;;;6.53;3.75;;;24.70;99.90;;;;;;5010881;28;20042;-72
2023/07/19 02:10:52;;;;;;;12.05;5.35;;;24.50;99.90;;;;;;4993512;28;20131;-72
2023/07/19 02:13:18;;;;;;;9.23;4.88;;;24.50;99.90;;;;;;4993098;28;20022;-73
2023/07/19 02:15:47;;;;;;;14.32;4.53;;;24.50;99.90;;;;;;5011090;28;20025;-73
2023/07/19 02:18:13;;;;;;;8.57;4.45;;;24.50;99.90;;;;;;4993021;28;20053;-73
2023/07/19 02:20:45;;;;;;;8.55;4.18;;;24.50;99.90;;;;;;5010902;28;20088;-73
2023/07/19 02:23:10;;;;;;;;;;;24.60;99.90;;;;;;5011390;28;20037;-73
2023/07/19 02:25:36;;;;;;;9.18;4.38;;;24.50;99.90;;;;;;5010733;28;19905;-74
2023/07/19 02:28:02;;;;;;;13.40;5.65;;;24.50;99.90;;;;;;4993048;28;20049;-73
2023/07/19 02:30:30;;;;;;;13.57;4.53;;;24.50;99.90;;;;;;5010400;28;20014;-73
2023/07/19 02:32:56;;;;;;;10.10;4.65;;;24.50;99.90;;;;;;4993079;28;20048;-73
2023/07/19 02:35:23;;;;;;;13.07;5.15;;;24.50;99.90;;;;;;5011065;28;20088;-73
2023/07/19 02:37:49;;;;;;;7.97;4.35;;;24.50;99.90;;;;;;4993005;28;20415;-73
2023/07/19 02:40:14;;;;;;;8.90;5.03;;;24.50;99.90;;;;;;4992755;28;20033;-73
2023/07/19 02:42:40;;;;;;;9.82;4.65;;;24.40;99.90;;;;;;5010755;28;20539;-72
2023/07/19 02:45:08;;;;;;;13.15;4.70;;;24.40;99.90;;;;;;5010668;28;20033;-73
2023/07/19 02:47:34;;;;;;;7.72;4.05;;;24.30;99.90;;;;;;5010263;28;20045;-72
2023/07/19 02:49:59;;;;;;;12.13;4.88;;;24.20;99.90;;;;;;4992956;28;20037;-73
2023/07/19 02:52:25;;;;;;;9.70;4.72;;;;;;;;;;4992699;28;20034;-73
2023/07/19 02:54:52;;;;;;;12.00;5.22;;;24.10;99.90;;;;;;5010457;28;20025;-73
2023/07/19 02:57:18;;;;;;;9.85;4.40;;;24.30;99.90;;;;;;5013431;28;20030;-73
2023/07/19 02:59:44;;;;;;;9.75;4.97;;;24.20;99.90;;;;;;5014597;28;20033;-73
2023/07/19 03:02:10;;;;;;;8.90;5.00;;;24.30;99.90;;;;;;5010321;28;20055;-72
2023/07/19 03:04:36;;;;;;;11.32;4.55;;;24.30;99.90;;;;;;5014234;28;20467;-73
2023/07/19 03:07:02;;;;;;;9.32;5.22;;;24.20;99.90;;;;;;4996200;28;20042;-72
2023/07/19 03:09:27;;;;;;;10.27;5.10;;;24.20;99.90;;;;;;5014213;28;20034;-73
2023/07/19 03:11:53;;;;;;;8.27;5.15;;;24.00;99.90;;;;;;4996571;28;20503;-73
2023/07/19 03:14:20;;;;;;;11.10;4.88;;;23.80;99.90;;;;;;5013931;28;20030;-73
2023/07/19 03:16:45;;;;;;;15.60;5.40;;;23.70;99.90;;;;;;4996668;28;20033;-73
2023/07/19 03:19:11;;;;;;;10.93;5.38;;;23.70;99.90;;;;;;4996200;28;20038;-73
2023/07/19 03:21:38;;;;;;;11.15;4.95;;;23.60;99.90;;;;;;5014120;28;20022;-73
2023/07/19 03:24:04;;;;;;;12.55;5.95;;;;;;;;;;5013812;28;20021;-73
2023/07/19 03:26:31;;;;;;;14.50;5.93;;;;;;;;;;4996505;28;20030;-73
2023/07/19 03:28:58;;;;;;;13.55;5.70;;;;;;;;;;4995976;28;20022;-73
2023/07/19 03:31:24;;;;;;;14.65;6.63;;;23.30;99.90;;;;;;4996895;28;20088;-73
2023/07/19 03:33:50;;;;;;;16.77;7.03;;;23.50;99.90;;;;;;4995915;28;20430;-73
2023/07/19 03:36:16;;;;;;;15.77;7.03;;;23.40;99.90;;;;;;5008098;28;20033;-73
2023/07/19 03:38:42;;;;;;;28.08;8.02;;;23.40;99.90;;;;;;5013757;28;20034;-73
2023/07/19 03:41:09;;;;;;;16.02;7.93;;;23.40;99.90;;;;;;5013389;28;20026;-73
2023/07/19 03:43:36;;;;;;;19.35;9.00;;;23.40;99.90;;;;;;4996319;28;20438;-72
2023/07/19 03:46:03;;;;;;;21.05;9.55;;;23.40;99.90;;;;;;5013725;28;20128;-73
2023/07/19 03:48:30;;;;;;;19.90;9.52;;;23.40;99.90;;;;;;4995767;28;20021;-72
2023/07/19 03:51:01;;;;;;;22.73;9.80;;;23.70;99.90;;;;;;4995626;28;20497;-73
2023/07/19 03:53:28;;;;;;;24.77;12.27;;;23.90;99.90;;;;;;4996105;28;20034;-74
2023/07/19 03:55:58;;;;;;;36.78;16.75;;;24.10;99.90;;;;;;5008088;28;20459;-74
2023/07/19 03:58:25;;;;;;;34.85;16.02;;;24.40;99.90;;;;;;5013201;28;20033;-74
2023/07/19 04:00:55;;;;;;;23.00;12.25;;;24.70;99.90;;;;;;5003003;28;20035;-74
2023/07/19 04:03:22;;;;;;;27.27;11.75;;;24.80;99.90;;;;;;4999610;28;20033;-74
2023/07/19 04:05:48;;;;;;;17.98;10.48;;;25.20;99.90;;;;;;5014965;28;20117;-73
2023/07/19 04:08:15;;;;;;;26.25;10.48;;;25.40;99.90;;;;;;5013575;28;20046;-73
2023/07/19 04:10:41;;;;;;;18.55;9.05;;;25.70;99.90;;;;;;5024026;28;20034;-74
2023/07/19 04:13:10;;;;;;;15.50;7.53;;;26.00;99.90;;;;;;4996934;28;20398;-74
2023/07/19 04:15:38;;;;;;;13.18;6.60;;;26.20;99.90;;;;;;4996855;28;20573;-73
2023/07/19 04:18:04;;;;;;;14.35;6.93;;;26.50;99.90;;;;;;5014344;28;20105;-73
2023/07/19 04:20:30;;;;;;;16.35;6.38;;;27.30;99.90;;;;;;4996543;28;20108;-72
2023/07/19 04:22:57;;;;;;;12.95;6.25;;;27.70;99.70;;;;;;4995310;28;20034;-74
2023/07/19 04:25:24;;;;;;;20.08;5.65;;;28.10;99.90;;;;;;5011970;28;20101;-74
2023/07/19 04:27:51;;;;;;;9.25;4.90;;;28.50;96.90;;;;;;5000539;28;20072;-73
2023/07/19 04:30:17;;;;;;;18.83;5.50;;;29.30;94.00;;;;;;4996351;28;20060;-73
2023/07/19 04:32:43;;;;;;;9.05;4.38;;;;;;;;;;4996612;28;20071;-74
2023/07/19 04:35:10;;;;;;;13.07;4.82;;;30.00;92.80;;;;;;5013908;28;20029;-74
2023/07/19 04:37:40;;;;;;;9.68;4.55;;;29.90;92.30;;;;;;5014086;28;20072;-75
2023/07/19 04:40:08;;;;;;;11.90;4.05;;;29.80;92.00;;;;;;5013991;28;20034;-75
2023/07/19 04:42:36;;;;;;;9.23;4.97;;;29.30;92.30;;;;;;4996260;28;20105;-75
2023/07/19 04:45:03;;;;;;;9.85;4.15;;;29.10;92.80;;;;;;5008265;28;20105;-73
2023/07/19 04:47:31;;;;;;;11.70;5.45;;;29.00;93.00;;;;;;4986763;28;20026;-73
2023/07/19 04:49:57;;;;;;;14.05;4.25;;;29.50;92.90;;;;;;4995929;28;20443;-74
2023/07/19 04:52:23;;;;;;;11.45;4.10;;;30.10;93.20;;;;;;4995848;28;20044;-73
2023/07/19 04:54:50;;;;;;;9.57;3.55;;;29.80;92.10;;;;;;4996048;28;20034;-75
2023/07/19 04:57:16;;;;;;;9.05;3.42;;;29.70;91.50;;;;;;5013848;28;20040;-73
2023/07/19 04:59:42;;;;;;;5.40;3.38;;;29.20;91.00;;;;;;5001055;28;20026;-76
2023/07/19 05:02:09;;;;;;;14.05;3.38;;;29.10;91.10;;;;;;4995981;28;20503;-75
2023/07/19 05:04:35;;;;;;;6.45;3.08;;;28.80;91.60;;;;;;5013352;28;20022;-76
2023/07/19 05:07:01;;;;;;;7.35;2.78;;;28.30;91.80;;;;;;4995972;28;20133;-73
2023/07/19 05:09:30;;;;;;;5.95;2.92;;;28.20;92.20;;;;;;4995285;28;20046;-73
2023/07/19 05:11:56;;;;;;;7.70;3.45;;;28.00;92.60;;;;;;4996041;28;20041;-73
2023/07/19 05:14:23;;;;;;;8.05;3.30;;;28.00;93.10;;;;;;4995419;28;20026;-74
2023/07/19 05:16:50;;;;;;;9.23;2.90;;;28.10;93.10;;;;;;4999085;28;20197;-75
2023/07/19 05:19:16;;;;;;;9.40;3.35;;;28.10;93.20;;;;;;4994505;28;20022;-72
2023/07/19 05:21:42;;;;;;;9.75;2.75;;;28.00;92.90;;;;;;4995614;28;20514;-73
2023/07/19 05:24:07;;;;;;;7.72;2.53;;;27.90;92.70;;;;;;4995280;28;20029;-75
2023/07/19 05:26:33;;;;;;;7.88;3.03;;;28.10;93.10;;;;;;4995312;28;20029;-75
2023/07/19 05:28:59;;;;;;;7.93;2.95;;;28.10;93.10;;;;;;5013170;28;20101;-74
2023/07/19 05:31:25;;;;;;;6.78;2.40;;;28.10;92.60;;;;;;5012617;28;20049;-72
2023/07/19 05:33:51;;;;;;;13.15;5.45;;;28.40;92.90;;;;;;5013111;28;20029;-75
2023/07/19 05:36:16;;;;;;;15.30;7.43;;;28.50;92.50;;;;;;5012841;28;20483;-73
2023/07/19 05:38:42;;;;;;;10.23;4.43;;;28.30;91.60;;;;;;5013270;28;20025;-73
2023/07/19 05:41:08;;;;;;;7.03;2.80;;;28.60;91.70;;;;;;5012827;28;20030;-75
2023/07/19 05:43:34;;;;;;;8.75;2.65;;;28.60;91.90;;;;;;5012752;28;20017;-74
2023/07/19 05:46:07;;;;;;;3.75;2.33;;;28.40;92.10;;;;;;5012958;28;20101;-74
2023/07/19 05:48:34;;;;;;;6.93;2.25;;;28.50;91.70;;;;;;5012575;28;20045;-74
2023/07/19 05:51:01;;;;;;;7.57;2.35;;;28.40;92.00;;;;;;5012860;28;20109;-74
2023/07/19 05:53:27;;;;;;;7.20;2.55;;;28.40;92.30;;;;;;5023538;28;20074;-74
2023/07/19 05:55:53;;;;;;;6.18;2.28;;;28.20;91.90;;;;;;5015985;28;20022;-74
2023/07/19 05:58:19;;;;;;;15.07;3.08;;;28.30;92.60;;;;;;5021393;28;20064;-72
2023/07/19 06:00:47;;;;;;;8.80;3.40;;;28.10;92.70;;;;;;5012387;28;20442;-74
2023/07/19 06:03:14;;;;;;;6.55;2.65;;;28.30;92.50;;;;;;5012285;28;20014;-75
2023/07/19 06:05:40;;;;;;;9.85;2.47;;;28.50;92.20;;;;;;5012739;28;20029;-75
2023/07/19 06:08:06;;;;;;;4.75;2.22;;;28.50;92.00;;;;;;5011973;28;20550;-74
2023/07/19 06:10:32;;;;;;;7.05;2.33;;;28.60;91.70;;;;;;5012584;28;20072;-74
2023/07/19 06:12:57;;;;;;;6.53;2.42;;;28.70;91.30;;;;;;5012410;28;20041;-75
2023/07/19 06:15:24;;;;;;;9.05;2.40;;;28.70;91.50;;;;;;5012149;28;20490;-75
2023/07/19 06:17:49;;;;;;;4.78;2.00;;;28.90;92.00;;;;;;5012381;28;20036;-75
2023/07/19 06:20:15;;;;;;;7.20;2.08;;;28.70;91.60;;;;;;4994740;28;20030;-75
2023/07/19 06:22:41;;;;;;;10.63;3.00;;;28.80;91.00;;;;;;5012195;28;20030;-74
2023/07/19 06:25:07;;;;;;;9.77;2.50;;;28.90;91.30;;;;;;5012046;28;20034;-75
2023/07/19 06:27:33;;;;;;;10.88;3.47;;;29.00;91.30;;;;;;5012309;28;20061;-74
2023/07/19 06:29:59;;;;;;;4.57;2.30;;;29.40;91.50;;;;;;4994588;28;20498;-74
2023/07/19 06:32:25;;;;;;;4.93;2.08;;;29.40;90.90;;;;;;5012026;28;20034;-75
2023/07/19 06:34:51;;;;;;;11.82;2.65;;;29.60;90.70;;;;;;5012175;28;20045;-75
2023/07/19 06:37:17;;;;;;;7.57;2.30;;;29.60;91.00;;;;;;5012072;28;20022;-74
2023/07/19 06:39:43;;;;;;;5.78;2.40;;;29.60;90.60;;;;;;5011966;28;20105;-74
2023/07/19 06:42:08;;;;;;;4.28;2.15;;;30.20;89.80;;;;;;5012024;28;20022;-75
2023/07/19 06:44:35;;;;;;;7.93;2.40;;;30.30;89.10;;;;;;4984530;28;20125;-73
2023/07/19 06:47:03;;;;;;;22.63;3.45;;;30.40;92.60;;;;;;5008915;28;20666;-75
2023/07/19 06:49:29;;;;;;;3.88;2.28;;;;;;;;;;4995239;28;20069;-75
2023/07/19 06:51:54;;;;;;;10.25;2.50;;;30.70;88.40;;;;;;5011919;28;20029;-74
2023/07/19 06:54:20;;;;;;;6.75;2.50;;;30.70;89.30;;;;;;5012202;28;20033;-74
2023/07/19 06:56:46;;;;;;;4.97;2.30;;;30.80;90.00;;;;;;5011857;28;20037;-73
2023/07/19 06:59:13;;;;;;;9.40;2.22;;;30.60;90.10;;;;;;4994548;28;20387;-74
2023/07/19 07:01:39;;;;;;;12.10;2.60;;;30.80;89.00;;;;;;5012331;28;20033;-73
2023/07/19 07:04:09;;;;;;;7.32;2.80;;;31.10;88.40;;;;;;5012060;28;20361;-75
2023/07/19 07:06:35;;;;;;;4.80;2.38;;;30.70;87.60;;;;;;5011840;28;20030;-73
2023/07/19 07:09:01;;;;;;;4.97;2.05;;;30.90;88.40;;;;;;5011703;28;20100;-74
2023/07/19 07:11:27;;;;;;;5.45;2.60;;;31.10;89.10;;;;;;5011644;28;20030;-75
2023/07/19 07:13:53;;;;;;;10.07;3.00;;;31.30;86.10;;;;;;5011795;28;20498;-73
2023/07/19 07:16:19;;;;;;;5.57;2.17;;;31.60;87.40;;;;;;5011864;28;20464;-73
2023/07/19 07:18:44;;;;;;;6.82;2.15;;;31.50;86.50;;;;;;5011715;28;20152;-74
2023/07/19 07:21:10;;;;;;;8.27;2.70;;;31.80;85.10;;;;;;5011816;28;20491;-74
2023/07/19 07:23:36;;;;;;;8.43;2.03;;;31.80;85.40;;;;;;5011651;28;20026;-75
2023/07/19 07:26:02;;;;;;;6.93;2.25;;;31.60;84.30;;;;;;5011858;28;20035;-73
2023/07/19 07:28:27;;;;;;;5.47;2.50;;;31.80;84.40;;;;;;5011745;28;20026;-75
2023/07/19 07:30:53;;;;;;;6.05;2.47;;;32.00;83.70;;;;;;5011711;28;20045;-75
2023/07/19 07:33:19;;;;;;;5.13;2.25;;;31.80;83.20;;;;;;5011476;28;20384;-74
2023/07/19 07:35:46;;;;;;;6.15;2.67;;;31.50;82.90;;;;;;5011622;28;20398;-75
2023/07/19 07:38:12;;;;;;;4.32;2.13;;;31.80;82.80;;;;;;5011858;28;20522;-75
2023/07/19 07:40:37;;;;;;;6.88;2.03;;;32.00;86.00;;;;;;4993794;28;20054;-74
2023/07/19 07:43:03;;;;;;;9.93;2.83;;;31.90;83.60;;;;;;5014473;28;20029;-75
2023/07/19 07:45:29;;;;;;;9.50;2.85;;;31.90;83.70;;;;;;5014698;28;20489;-73
2023/07/19 07:47:55;;;;;;;10.20;2.70;;;31.70;85.10;;;;;;5015364;28;20033;-75
2023/07/19 07:50:22;;;;;;;12.90;2.47;;;32.20;83.60;;;;;;5014678;28;20022;-72
2023/07/19 07:52:48;;;;;;;12.25;2.88;;;;;;;;;;5015041;28;20034;-73
2023/07/19 07:55:14;;;;;;;12.45;2.75;;;32.30;82.30;;;;;;5014518;28;20034;-75
2023/07/19 07:57:40;;;;;;;8.98;3.15;;;32.20;82.40;;;;;;5015005;28;20030;-74
2023/07/19 08:00:07;;;;;;;17.70;4.45;;;32.20;81.40;;;;;;5014846;28;20533;-73
2023/07/19 08:02:36;;;;;;;12.85;3.83;;;32.40;82.10;;;;;;5014677;28;20026;-72
2023/07/19 08:05:03;;;;;;;15.65;4.00;;;32.60;81.70;;;;;;5014764;28;20041;-74
2023/07/19 08:07:29;;;;;;;20.58;4.10;;;32.60;82.40;;;;;;5014525;28;20426;-75
2023/07/19 08:09:55;;;;;;;16.98;4.13;;;32.30;82.80;;;;;;5014471;28;20029;-74
2023/07/19 08:12:21;;;;;;;9.07;2.92;;;;;;;;;;5014229;28;20494;-73
2023/07/19 08:14:47;;;;;;;11.90;3.42;;;33.00;79.30;;;;;;5014734;28;20070;-76
2023/07/19 08:17:13;;;;;;;11.55;3.10;;;32.70;80.90;;;;;;5014320;28;20061;-74
2023/07/19 08:19:39;;;;;;;9.18;2.83;;;33.30;81.40;;;;;;4996651;28;20068;-76
2023/07/19 08:22:05;;;;;;;9.88;2.85;;;33.60;82.80;;;;;;5014346;28;20030;-73
2023/07/19 08:24:31;;;;;;;7.63;2.35;;;33.60;79.80;;;;;;5014155;28;20076;-74
2023/07/19 08:26:58;;;;;;;8.35;2.55;;;33.70;82.80;;;;;;5014409;28;20400;-76
2023/07/19 08:29:26;;;;;;;10.02;2.80;;;33.60;82.10;;;;;;5014264;28;20045;-74
2023/07/19 08:31:52;;;;;;;6.90;2.33;;;33.60;81.00;;;;;;5014138;28;20525;-74
2023/07/19 08:34:18;;;;;;;6.00;2.28;;;33.70;80.50;;;;;;5014002;28;20096;-76
2023/07/19 08:36:45;;;;;;;8.30;2.47;;;33.40;79.70;;;;;;5013987;28;20471;-74
2023/07/19 08:39:11;;;;;;;12.32;2.80;;;33.40;80.10;;;;;;5013989;28;20022;-75
2023/07/19 08:41:37;;;;;;;5.00;1.98;;;33.40;80.40;;;;;;5014054;28;20438;-74
2023/07/19 08:44:04;;;;;;;7.00;2.30;;;33.50;80.10;;;;;;5014000;28;20076;-75
2023/07/19 08:46:31;;;;;;;10.10;2.65;;;33.30;80.20;;;;;;5013829;28;20483;-74
2023/07/19 08:48:59;;;;;;;5.20;2.28;;;33.10;81.10;;;;;;5014376;28;20036;-76
2023/07/19 08:51:26;;;;;;;5.07;2.15;;;33.10;79.20;;;;;;5013540;28;20038;-76
2023/07/19 08:53:52;;;;;;;6.63;2.42;;;33.30;79.30;;;;;;4996290;28;20099;-73
2023/07/19 08:56:19;;;;;;;8.70;2.38;;;33.40;79.40;;;;;;5013572;28;20116;-75
2023/07/19 08:58:45;;;;;;;5.95;2.72;;;33.60;79.60;;;;;;5013884;28;20475;-73
2023/07/19 09:01:14;;;;;;;11.68;2.47;;;33.50;80.80;;;;;;5013333;28;20026;-72
2023/07/19 09:03:40;;;;;;;9.30;2.53;;;33.60;77.80;;;;;;5013686;28;20034;-74
2023/07/19 09:06:07;;;;;;;6.75;2.67;;;33.40;79.40;;;;;;5013415;28;20068;-76
2023/07/19 09:08:38;;;;;;;9.80;3.10;;;33.10;78.60;;;;;;5013581;28;20073;-73
2023/07/19 09:11:04;;;;;;;7.28;2.88;;;33.50;82.00;;;;;;5013464;28;20510;-74
2023/07/19 09:13:32;;;;;;;8.68;3.42;;;33.50;81.50;;;;;;5013227;28;20022;-76
2023/07/19 09:15:58;;;;;;;11.77;3.22;;;34.10;81.00;;;;;;5013354;28;20026;-75
2023/07/19 09:18:29;;;;;;;8.50;2.53;;;;;;;;;;5013040;28;20064;-74
2023/07/19 09:20:58;;;;;;;6.38;2.67;;;34.10;80.50;;;;;;5013439;28;20463;-76
2023/07/19 09:23:24;;;;;;;9.05;2.10;;;33.90;81.30;;;;;;5013117;28;20053;-72
2023/07/19 09:25:55;;;;;;;6.32;2.30;;;34.20;78.50;;;;;;5013235;28;20374;-75
2023/07/19 09:28:23;;;;;;;10.33;3.13;;;34.10;80.70;;;;;;5013461;28;20029;-76
2023/07/19 09:30:58;;;;;;;8.18;2.95;;;34.10;80.40;;;;;;5013260;28;20455;-75
2023/07/19 09:33:28;;;;;;;4.95;2.78;;;33.60;79.00;;;;;;5013126;28;20033;-75
2023/07/19 09:35:57;;;;;;;6.82;2.83;;;33.80;79.70;;;;;;5012867;28;20459;-75
2023/07/19 09:38:24;;;;;;;6.35;2.60;;;34.00;78.40;;;;;;5013122;28;20422;-77
2023/07/19 09:40:55;;;;;;;4.82;2.80;;;33.90;78.00;;;;;;4995173;28;20433;-75
2023/07/19 09:43:21;;;;;;;7.25;2.70;;;34.20;80.00;;;;;;5012894;28;20471;-75
2023/07/19 09:45:48;;;;;;;5.05;2.60;;;34.40;82.10;;;;;;5012977;28;20491;-76
2023/07/19 09:48:20;;;;;;;5.28;2.42;;;34.30;82.20;;;;;;5012714;28;20061;-73
2023/07/19 09:50:51;;;;;;;9.95;2.72;;;34.90;79.70;;;;;;5012868;28;20034;-76
2023/07/19 09:53:21;;;;;;;;;;;34.90;79.80;;;;;;5012899;28;20045;-77
2023/07/19 09:55:48;;;;;;;10.23;2.70;;;35.00;79.70;;;;;;5013303;28;19936;-76
2023/07/19 09:58:16;;;;;;;7.43;2.22;;;35.50;89.10;;;;;;4994952;28;20100;-75
2023/07/19 10:00:42;;;;;;;6.65;2.53;;;35.20;77.50;;;;;;5012467;28;20434;-75
2023/07/19 10:03:08;;;;;;;9.25;3.58;;;35.30;76.70;;;;;;5012646;28;20083;-77
2023/07/19 10:05:42;;;;;;;11.23;3.17;;;35.30;77.00;;;;;;5012049;28;20101;-73
2023/07/19 10:08:10;;;;;;;11.52;3.00;;;35.50;79.60;;;;;;5012504;28;20069;-76
2023/07/19 10:10:39;;;;;;;10.57;3.00;;;35.40;80.10;;;;;;5012317;28;20041;-73
2023/07/19 10:13:06;;;;;;;8.15;2.45;;;35.40;81.70;;;;;;5012464;28;20037;-75
2023/07/19 10:15:32;;;;;;;15.73;2.85;;;35.20;83.60;;;;;;5012404;28;20040;-76
2023/07/19 10:17:59;;;;;;;15.55;3.13;;;35.50;82.30;;;;;;5012303;28;20077;-76
2023/07/19 10:20:30;;;;;;;8.68;2.60;;;35.40;83.70;;;;;;5012486;28;20088;-73
2023/07/19 10:22:57;;;;;;;;;;;35.30;84.80;;;;;;5012555;28;20037;-77
2023/07/19 10:25:35;;;;;;;8.63;2.67;;;35.40;83.70;;;;;;5012274;28;19909;-74
2023/07/19 10:28:08;;;;;;;7.88;2.33;;;35.50;82.60;;;;;;5000970;28;20475;-74
2023/07/19 10:31:01;;;;;;;3.83;2.10;;;35.60;82.00;;;;;;5011900;28;20113;-75
2023/07/19 10:33:30;;;;;;;4.43;1.88;;;35.50;83.00;;;;;;5010520;28;20119;-75
2023/07/19 10:36:07;;;;;;;5.30;2.70;;;35.60;86.70;;;;;;4999438;28;20021;-76
2023/07/19 10:38:33;;;;;;;8.98;2.28;;;35.50;81.40;;;;;;5012262;28;20479;-77
2023/07/19 10:41:01;;;;;;;6.10;2.47;;;35.50;81.90;;;;;;5012251;28;20030;-77
2023/07/19 10:43:29;;;;;;;10.27;2.50;;;35.10;79.40;;;;;;5011732;28;20085;-76
2023/07/19 10:45:56;;;;;;;9.98;2.20;;;35.20;80.90;;;;;;5012187;28;20113;-76
2023/07/19 10:48:26;;;;;;;8.10;2.28;;;34.90;78.50;;;;;;4994385;28;20044;-73
2023/07/19 10:51:00;;;;;;;7.90;2.50;;;35.10;79.00;;;;;;5011733;28;20038;-75
2023/07/19 10:53:26;;;;;;;7.50;2.55;;;35.30;81.10;;;;;;5012038;28;20491;-76
2023/07/19 10:55:56;;;;;;;6.05;2.42;;;35.40;79.70;;;;;;5011842;28;20024;-72
2023/07/19 10:58:22;;;;;;;10.20;2.53;;;35.10;80.00;;;;;;5012055;28;20034;-74
2023/07/19 11:00:49;;;;;;;10.27;2.65;;;35.20;75.90;;;;;;5011688;28;20033;-76
2023/07/19 11:03:15;;;;;;;6.30;2.20;;;35.30;77.30;;;;;;5012157;28;20530;-75
2023/07/19 11:05:48;;;;;;;8.30;2.75;;;35.20;79.10;;;;;;5011784;28;20159;-73
2023/07/19 11:08:21;;;;;;;10.70;2.40;;;35.40;80.70;;;;;;5012069;28;20414;-77
2023/07/19 11:10:49;;;;;;;11.55;3.10;;;35.30;78.70;;;;;;5011759;28;20026;-77
2023/07/19 11:13:17;;;;;;;6.35;2.28;;;35.50;77.80;;;;;;5011748;28;20022;-74
2023/07/19 11:15:48;;;;;;;7.78;2.33;;;35.10;79.10;;;;;;5011820;28;20106;-76
2023/07/19 11:18:35;;;;;;;10.25;3.17;;;35.30;80.60;;;;;;5014710;28;20467;-73
2023/07/19 11:21:02;;;;;;;8.40;2.40;;;35.40;81.10;;;;;;5015308;28;20314;-76
2023/07/19 11:23:29;;;;;;;8.25;2.58;;;35.40;81.20;;;;;;5015548;28;20502;-76
2023/07/19 11:26:12;;;;;;;8.43;2.95;;;35.50;78.40;;;;;;5015263;28;20025;-73
2023/07/19 11:28:49;;;;;;;3.13;2.05;;;35.00;79.30;;;;;;5015506;28;20037;-75
2023/07/19 11:31:35;;;;;;;8.45;2.65;;;34.80;78.30;;;;;;5015458;28;20483;-76
2023/07/19 11:34:08;;;;;;;9.52;2.78;;;35.10;79.20;;;;;;5014936;28;20018;-77
2023/07/19 11:36:35;;;;;;;10.82;3.13;;;34.80;80.60;;;;;;5015346;28;20022;-77
2023/07/19 11:39:01;;;;;;;8.07;2.65;;;34.90;78.60;;;;;;5015678;28;20037;-77
2023/07/19 11:41:31;;;;;;;10.35;2.70;;;34.70;80.60;;;;;;5015331;28;20030;-76
2023/07/19 11:43:57;;;;;;;10.30;2.92;;;34.70;79.70;;;;;;4997599;28;20029;-75
2023/07/19 11:46:23;;;;;;;9.05;2.42;;;34.60;80.20;;;;;;5014965;28;20026;-75
2023/07/19 11:48:50;;;;;;;8.70;2.90;;;34.40;80.10;;;;;;5015058;28;20033;-76
2023/07/19 11:51:15;;;;;;;6.45;2.47;;;34.40;80.40;;;;;;5014668;28;20498;-75
2023/07/19 11:53:41;;;;;;;10.98;2.70;;;34.30;80.80;;;;;;4997431;28;20061;-77
2023/07/19 11:56:07;;;;;;;6.72;2.20;;;33.90;80.20;;;;;;5014727;28;20030;-76
2023/07/19 11:58:33;;;;;;;5.88;2.60;;;34.10;80.80;;;;;;5014948;28;20065;-76
2023/07/19 12:01:00;;;;;;;6.25;2.47;;;34.00;79.80;;;;;;5014811;28;20022;-77
2023/07/19 12:03:26;;;;;;;10.27;2.28;;;34.10;79.10;;;;;;5014764;28;20026;-76
2023/07/19 12:05:52;;;;;;;8.40;2.72;;;34.30;80.60;;;;;;5014662;28;20037;-73
2023/07/19 12:08:18;;;;;;;7.28;2.60;;;34.40;82.80;;;;;;5014402;28;20038;-76
2023/07/19 12:10:43;;;;;;;6.35;1.95;;;34.50;79.90;;;;;;5014400;28;20089;-74
2023/07/19 12:13:09;;;;;;;7.55;2.95;;;34.50;78.60;;;;;;5014842;28;20030;-77
2023/07/19 12:15:35;;;;;;;8.77;2.78;;;34.50;79.20;;;;;;5014591;28;20033;-76
2023/07/19 12:18:01;;;;;;;12.35;2.97;;;34.40;77.70;;;;;;5014355;28;20041;-77
2023/07/19 12:20:27;;;;;;;9.05;2.60;;;34.60;77.40;;;;;;5014320;28;20049;-74
2023/07/19 12:22:53;;;;;;;6.75;2.60;;;34.50;78.30;;;;;;4996628;28;20956;-75
2023/07/19 12:25:20;;;;;;;11.48;3.20;;;34.60;78.40;;;;;;4996708;28;20033;-76
2023/07/19 12:27:52;;;;;;;9.77;2.80;;;34.50;79.50;;;;;;5013841;28;20030;-77
2023/07/19 12:30:18;;;;;;;8.05;2.22;;;34.40;78.00;;;;;;5014189;28;20026;-77
2023/07/19 12:32:44;;;;;;;6.13;2.20;;;34.50;78.70;;;;;;5014744;28;20089;-76
2023/07/19 12:35:10;;;;;;;3.65;2.30;;;34.50;79.30;;;;;;5014243;28;20395;-76
2023/07/19 12:37:35;;;;;;;8.73;2.22;;;34.80;79.50;;;;;;4996900;28;20041;-73
2023/07/19 12:40:05;;;;;;;8.50;2.45;;;34.80;82.50;;;;;;5013707;28;20033;-74
2023/07/19 12:42:31;;;;;;;8.05;2.70;;;34.50;78.50;;;;;;5014116;28;20021;-76
2023/07/19 12:44:56;;;;;;;7.88;3.15;;;34.50;78.90;;;;;;5013912;28;20034;-76
2023/07/19 12:47:22;;;;;;;9.13;2.60;;;34.50;79.20;;;;;;4996673;28;20014;-73
2023/07/19 12:49:48;;;;;;;11.23;2.47;;;34.40;78.30;;;;;;5013573;28;20483;-73
2023/07/19 12:52:14;;;;;;;10.38;2.50;;;34.50;79.20;;;;;;5013751;28;20088;-73